Time;durP1;ratioP1;P1;durP2;ratioP2;P2;SDS_P1;SDS_P2;PMS_P1;PMS_P2;Temp;Humidity;BMP_temperature;BMP_pressure;BME280_temperature;BME280_humidity;BME280_pressure;Samples;Min_cycle;Max_cycle;Signal;HPM_P1;HPM_P2
2022/11/22 00:00:52;;;;;;;10.25;1.83;;;;;;;7.68;100.00;97716.69;12184911;19;20464;-83
2022/11/22 00:04:54;;;;;;;3.55;1.58;;;;;;;7.70;100.00;97703.50;12206849;19;20003;-82
2022/11/22 00:08:56;;;;;;;6.65;1.67;;;;;;;7.73;100.00;97705.66;12207837;19;20030;-82
2022/11/22 00:12:58;;;;;;;3.28;1.40;;;;;;;7.71;100.00;97707.88;12185654;19;20551;-84
2022/11/22 00:16:59;;;;;;;4.23;1.23;;;;;;;7.73;100.00;97700.19;12205353;19;20495;-82
2022/11/22 00:21:06;;;;;;;4.95;1.70;;;;;;;7.74;100.00;97685.38;12243820;19;20060;-81
2022/11/22 00:25:07;;;;;;;6.93;1.48;;;;;;;7.70;100.00;97679.66;12232899;19;20032;-82
2022/11/22 00:29:09;;;;;;;3.47;1.38;;;;;;;7.73;100.00;97672.75;12214009;19;20381;-84
2022/11/22 00:33:11;;;;;;;3.15;1.42;;;;;;;7.70;100.00;97662.38;12212019;19;20484;-83
2022/11/22 00:37:12;;;;;;;2.28;1.23;;;;;;;7.71;100.00;97664.84;12191496;19;20010;-83
2022/11/22 00:41:14;;;;;;;3.60;1.45;;;;;;;7.73;100.00;97659.91;12212509;19;20007;-84
2022/11/22 00:45:16;;;;;;;2.60;1.30;;;;;;;7.72;100.00;97666.47;12208870;19;20465;-84
2022/11/22 00:49:17;;;;;;;4.20;1.35;;;;;;;7.73;100.00;97659.91;12190489;19;20014;-84
2022/11/22 00:53:20;;;;;;;5.30;1.92;;;;;;;7.73;100.00;97659.06;12208729;19;20006;-85
2022/11/22 00:57:28;;;;;;;4.72;1.67;;;;;;;7.72;100.00;97663.72;12209310;19;20062;-84
2022/11/22 01:01:30;;;;;;;3.63;1.67;;;;;;;7.75;100.00;97662.34;12191462;19;20349;-83
2022/11/22 01:05:32;;;;;;;5.57;1.70;;;;;;;7.74;100.00;97663.47;12217270;19;20742;-82
2022/11/22 01:09:35;;;;;;;6.50;1.65;;;;;;;7.79;100.00;97676.31;12218053;19;20007;-87
2022/11/22 01:13:37;;;;;;;3.30;1.23;;;;;;;7.83;100.00;97680.13;12193551;19;20479;-84
2022/11/22 01:17:39;;;;;;;8.48;1.33;;;;;;;7.84;100.00;97687.25;12213286;19;20022;-84
2022/11/22 01:21:41;;;;;;;3.83;1.98;;;;;;;7.87;100.00;97676.50;12215704;19;20528;-85
2022/11/22 01:25:43;;;;;;;4.95;1.45;;;;;;;7.90;100.00;97699.81;12192650;19;20031;-85
2022/11/22 01:29:45;;;;;;;4.47;1.23;;;;;;;7.91;100.00;97712.41;12217255;19;20010;-83
2022/11/22 01:33:46;;;;;;;3.60;1.40;;;;;;;7.92;100.00;97717.63;12216331;19;20496;-85
2022/11/22 01:37:48;;;;;;;4.80;1.27;;;;;;;7.94;100.00;97715.44;12196422;19;20721;-83
2022/11/22 01:41:49;;;;;;;4.10;1.45;;;;;;;7.94;100.00;97711.84;12220376;19;20002;-84
2022/11/22 01:46:02;;;;;;;4.78;1.75;;;;;;;7.95;100.00;97716.25;12218829;19;20666;-84
2022/11/22 01:50:06;;;;;;;6.97;1.73;;;;;;;7.98;100.00;97721.16;12218994;19;20014;-84
2022/11/22 01:54:13;;;;;;;3.30;1.80;;;;;;;8.01;100.00;97737.03;12214048;19;20018;-85
2022/11/22 01:58:15;;;;;;;6.50;2.28;;;;;;;8.01;100.00;97737.03;12196801;19;20053;-84
2022/11/22 02:02:17;;;;;;;5.07;2.38;;;;;;;7.99;100.00;97731.00;12218064;19;20040;-84
2022/11/22 02:06:19;;;;;;;7.53;2.50;;;;;;;8.00;100.00;97729.91;12245118;19;20099;-83
2022/11/22 02:10:24;;;;;;;4.60;2.93;;;;;;;7.96;100.00;97742.56;12200502;19;20380;-83
2022/11/22 02:14:27;;;;;;;5.70;2.33;;;;;;;7.95;100.00;97738.19;12215041;19;20039;-83
2022/11/22 02:18:28;;;;;;;4.53;2.80;;;;;;;7.95;100.00;97738.19;12216965;19;20007;-84
2022/11/22 02:22:45;;;;;;;5.68;2.92;;;;;;;7.95;100.00;97728.03;12193298;19;20100;-83
2022/11/22 02:26:46;;;;;;;8.77;2.72;;;;;;;7.90;100.00;97744.50;12216654;19;20532;-83
2022/11/22 02:30:48;;;;;;;7.88;3.58;;;;;;;7.86;100.00;97751.66;12215293;19;20360;-82
2022/11/22 02:34:50;;;;;;;7.07;3.33;;;;;;;7.83;100.00;97746.75;12187319;19;20369;-84
2022/11/22 02:38:53;;;;;;;5.15;2.85;;;;;;;7.81;100.00;97745.38;12214320;19;20002;-85
2022/11/22 02:43:14;;;;;;;8.23;3.53;;;;;;;7.82;100.00;97738.78;12188631;19;20039;-83
2022/11/22 02:47:16;;;;;;;9.20;3.78;;;;;;;7.79;100.00;97745.66;12211141;19;20469;-84
2022/11/22 02:51:20;;;;;;;6.72;3.90;;;;;;;7.82;100.00;97747.03;12215257;19;20460;-84
2022/11/22 02:55:22;;;;;;;6.97;4.15;;;;;;;7.84;100.00;97764.00;12204894;19;20007;-84
2022/11/22 02:59:24;;;;;;;7.10;4.05;;;;;;;7.85;100.00;97763.75;12275694;19;20003;-82
2022/11/22 03:03:25;;;;;;;8.02;4.07;;;;;;;7.88;100.00;97765.09;12268740;19;20024;-82
2022/11/22 03:07:27;;;;;;;7.88;3.80;;;;;;;7.86;100.00;97757.16;12201296;19;20010;-86
2022/11/22 03:11:29;;;;;;;10.77;4.63;;;;;;;7.88;100.00;97754.97;12205286;19;20003;-86
2022/11/22 03:15:30;;;;;;;9.00;3.40;;;;;;;7.88;100.00;97759.59;12204875;19;20015;-85
2022/11/22 03:19:32;;;;;;;7.88;4.03;;;;;;;7.85;100.00;97757.41;12181607;19;20021;-85
2022/11/22 03:23:34;;;;;;;7.10;3.25;;;;;;;7.79;100.00;97770.34;12202793;19;20472;-85
2022/11/22 03:27:36;;;;;;;6.40;3.60;;;;;;;7.77;100.00;97778.03;12202173;19;20020;-86
2022/11/22 03:31:38;;;;;;;6.85;2.65;;;;;;;7.74;100.00;97786.81;12181423;19;20050;-86
2022/11/22 03:35:39;;;;;;;7.32;3.20;;;;;;;7.71;100.00;97795.63;12201500;19;20022;-82
2022/11/22 03:39:41;;;;;;;10.27;3.43;;;;;;;7.70;100.00;97794.78;12065146;19;2774156;-84
2022/11/22 03:43:42;;;;;;;7.03;3.13;;;;;;;7.71;100.00;97796.44;12182925;19;20010;-86
2022/11/22 03:47:46;;;;;;;6.75;3.08;;;;;;;7.73;100.00;97794.25;12207832;19;20011;-84
2022/11/22 03:51:47;;;;;;;9.13;3.40;;;;;;;7.74;100.00;97787.63;12207321;19;20014;-84
2022/11/22 03:55:49;;;;;;;10.60;3.17;;;;;;;7.74;100.00;97801.34;12187385;19;20039;-82
2022/11/22 03:59:51;;;;;;;9.88;2.97;;;;;;;7.79;100.00;97807.91;12208540;19;20006;-86
2022/11/22 04:03:52;;;;;;;7.20;3.10;;;;;;;7.79;100.00;97802.41;12199553;19;20007;-84
2022/11/22 04:07:56;;;;;;;6.47;3.10;;;;;;;7.77;100.00;97805.47;12212772;19;20486;-84
2022/11/22 04:11:58;;;;;;;5.72;2.35;;;;;;;7.75;100.00;97797.50;12206172;19;20021;-84
2022/11/22 04:15:59;;;;;;;12.98;3.42;;;;;;;7.73;100.00;97796.97;12187190;19;20042;-84
2022/11/22 04:28:42;;;;;;;14.23;3.60;;;;;;;7.53;100.00;97814.31;12187794;19;20390;-83
2022/11/22 04:33:03;;;;;;;11.88;3.17;;;;;;;7.51;100.00;97815.69;12209938;19;20011;-84
2022/11/22 04:37:05;;;;;;;9.23;3.50;;;;;;;7.47;100.00;97822.84;12193671;19;20034;-83
2022/11/22 04:41:07;;;;;;;8.68;3.50;;;;;;;7.46;100.00;97821.16;12220801;19;20014;-87
2022/11/22 04:45:09;;;;;;;8.82;3.72;;;;;;;7.43;100.00;97829.94;12217429;19;20010;-84
2022/11/22 04:49:10;;;;;;;12.20;3.00;;;;;;;7.40;100.00;97833.25;12198936;19;20030;-84
2022/11/22 04:53:12;;;;;;;15.45;3.55;;;;;;;7.39;100.00;97832.44;12218371;19;20035;-85
2022/11/22 04:57:14;;;;;;;9.73;3.00;;;;;;;7.38;100.00;97849.16;12219693;19;20006;-83
2022/11/22 05:01:17;;;;;;;6.82;3.50;;;;;;;7.36;100.00;97832.16;12198078;19;20010;-83
2022/11/22 05:05:18;;;;;;;9.70;2.97;;;;;;;7.33;100.00;97835.47;12219674;19;20030;-84
2022/11/22 05:09:20;;;;;;;8.57;3.08;;;;;;;7.33;100.00;97843.69;12219443;19;20035;-82
2022/11/22 05:13:33;;;;;;;18.35;3.38;;;;;;;7.28;100.00;97837.09;12204598;19;20014;-81
2022/11/22 05:17:35;;;;;;;;;;;;;;;7.25;100.00;97834.91;12268324;19;20515;-82
2022/11/22 05:21:37;;;;;;;9.98;3.22;;;;;;;7.24;100.00;97833.28;12242982;19;19919;-83
2022/11/22 05:25:40;;;;;;;12.05;3.45;;;;;;;7.22;100.00;97851.91;12201755;19;20010;-83
2022/11/22 05:29:42;;;;;;;15.35;3.17;;;;;;;7.20;100.00;97856.84;12235326;19;20036;-82
2022/11/22 05:33:45;;;;;;;11.50;3.28;;;;;;;7.18;100.00;97867.25;12244708;19;20007;-82
2022/11/22 05:37:46;;;;;;;14.52;3.55;;;;;;;7.16;100.00;97863.16;12200020;19;20010;-85
2022/11/22 05:41:57;;;;;;;8.40;3.97;;;;;;;7.11;100.00;97861.25;12219619;19;20378;-84
2022/11/22 05:46:17;;;;;;;11.60;3.95;;;;;;;7.03;100.00;97864.53;12198426;19;20002;-83
2022/11/22 05:50:25;;;;;;;12.70;3.80;;;;;;;6.99;100.00;97886.16;12221896;19;20038;-82
2022/11/22 05:54:29;;;;;;;12.93;3.47;;;;;;;6.96;100.00;97892.19;12215255;19;20016;-83
2022/11/22 05:58:31;;;;;;;20.02;3.75;;;;;;;6.93;100.00;97900.09;12198355;19;20063;-82
2022/11/22 06:02:33;;;;;;;13.38;4.18;;;;;;;6.94;100.00;97893.56;12215448;19;20018;-84
2022/11/22 06:06:34;;;;;;;10.32;3.30;;;;;;;6.99;100.00;97901.75;12218679;19;20117;-83
2022/11/22 06:10:37;;;;;;;13.48;4.53;;;;;;;7.11;100.00;97916.03;12196551;19;20015;-82
2022/11/22 06:14:39;;;;;;;12.20;3.40;;;;;;;7.23;100.00;97924.78;12215589;19;20030;-86
2022/11/22 06:18:44;;;;;;;13.65;3.92;;;;;;;7.35;100.00;97930.00;12217049;19;20014;-85
2022/11/22 06:22:51;;;;;;;14.73;3.83;;;;;;;7.45;100.00;97929.16;12195428;19;20030;-82
2022/11/22 06:26:52;;;;;;;9.52;3.20;;;;;;;7.52;100.00;97938.75;12212215;19;20022;-81
2022/11/22 06:31:00;;;;;;;8.30;3.55;;;;;;;7.60;100.00;97940.09;12189191;19;20003;-85
2022/11/22 06:35:03;;;;;;;15.80;2.95;;;;;;;7.66;100.00;97944.47;12203114;19;20014;-80
2022/11/22 06:39:06;;;;;;;13.23;2.70;;;;;;;7.70;100.00;97953.81;12224653;19;20441;-84
2022/11/22 06:43:08;;;;;;;8.25;3.10;;;;;;;7.74;100.00;97959.56;12173938;19;20062;-81
2022/11/22 06:47:13;;;;;;;8.85;2.30;;;;;;;7.74;100.00;97963.09;12214090;19;20034;-82
2022/11/22 06:51:19;;;;;;;9.32;2.28;;;;;;;7.75;100.00;97964.75;12219534;19;20038;-82
2022/11/22 06:55:21;;;;;;;10.05;2.60;;;;;;;7.72;100.00;97973.53;12195142;19;20022;-83
2022/11/22 06:59:42;;;;;;;11.63;2.70;;;;;;;7.58;100.00;97979.84;12216596;19;20030;-83
2022/11/22 07:03:46;;;;;;;;;;;;;;;7.49;100.00;97985.03;12216714;19;20488;-83
2022/11/22 07:07:47;;;;;;;8.52;2.20;;;;;;;7.49;100.00;97993.28;12196833;19;19917;-83
2022/11/22 07:11:49;;;;;;;10.48;3.35;;;;;;;7.51;100.00;97991.91;12215631;19;20083;-82
2022/11/22 07:15:58;;;;;;;6.75;2.10;;;;;;;7.57;100.00;97984.50;12216864;19;20494;-82
2022/11/22 07:19:59;;;;;;;11.23;2.30;;;;;;;7.66;100.00;97987.50;12193174;19;20018;-82
2022/11/22 07:24:03;;;;;;;11.30;2.70;;;;;;;7.74;100.00;97992.44;12213674;19;20013;-83
2022/11/22 07:28:05;;;;;;;12.40;3.13;;;;;;;7.79;100.00;98002.56;12193918;19;20039;-82
2022/11/22 07:32:06;;;;;;;10.10;2.25;;;;;;;7.78;100.00;97996.28;12215352;19;20011;-83
2022/11/22 07:36:13;;;;;;;7.97;2.15;;;;;;;7.76;100.00;98010.28;12214849;19;20030;-83
2022/11/22 07:40:15;;;;;;;11.40;2.40;;;;;;;7.71;100.00;98018.50;12194410;19;20410;-82
2022/11/22 07:44:17;;;;;;;11.00;1.98;;;;;;;7.65;100.00;98019.59;12213811;19;20019;-81
2022/11/22 07:48:20;;;;;;;15.70;2.45;;;;;;;7.66;100.00;98029.44;12215250;19;20009;-82
2022/11/22 07:52:22;;;;;;;9.68;1.90;;;;;;;7.67;100.00;98038.50;12191044;19;20070;-82
2022/11/22 07:56:24;;;;;;;5.20;1.65;;;;;;;7.71;100.00;98043.16;12213415;19;20492;-82
2022/11/22 08:00:27;;;;;;;11.60;1.98;;;;;;;7.79;100.00;98051.94;12216647;19;20394;-82
2022/11/22 08:04:28;;;;;;;9.98;1.65;;;;;;;7.84;100.00;98051.94;12191766;19;20022;-82
2022/11/22 08:08:30;;;;;;;5.90;1.50;;;;;;;7.91;100.00;98049.72;12217820;19;20042;-81
2022/11/22 08:12:31;;;;;;;8.13;2.20;;;;;;;7.95;100.00;98050.84;12237784;19;20011;-81
2022/11/22 08:16:33;;;;;;;7.50;1.42;;;;;;;8.02;100.00;98058.78;12206286;19;20007;-81
2022/11/22 08:20:35;;;;;;;8.02;1.77;;;;;;;8.10;100.00;98066.47;12226381;19;20052;-82
2022/11/22 08:24:36;;;;;;;11.85;1.50;;;;;;;8.16;100.00;98070.84;12220848;19;20018;-82
2022/11/22 08:28:39;;;;;;;9.85;2.50;;;;;;;8.23;100.00;98077.66;12203637;19;20034;-81
2022/11/22 08:32:41;;;;;;;5.47;1.27;;;;;;;8.29;100.00;98073.00;12222828;19;20068;-82
2022/11/22 08:36:42;;;;;;;11.32;2.05;;;;;;;8.28;100.00;98076.03;12221780;19;20011;-82
2022/11/22 08:40:44;;;;;;;10.40;1.63;;;;;;;8.31;100.00;98081.78;12202125;19;20007;-82
2022/11/22 08:44:45;;;;;;;5.97;1.92;;;;;;;8.37;100.00;98074.38;12220923;19;20007;-82
2022/11/22 08:48:47;;;;;;;6.05;2.28;;;;;;;8.39;100.00;98066.72;12224390;19;20002;-82
2022/11/22 08:52:48;;;;;;;7.75;1.98;;;;;;;8.41;100.00;98069.97;12199072;19;20018;-82
2022/11/22 08:56:50;;;;;;;9.45;2.83;;;;;;;8.42;100.00;98071.66;12222808;19;20034;-82
2022/11/22 09:00:52;;;;;;;8.13;2.25;;;;;;;8.43;100.00;98073.28;12224163;19;20006;-82
2022/11/22 09:04:53;;;;;;;8.60;2.38;;;;;;;8.48;100.00;98073.28;12201862;19;20777;-82
2022/11/22 09:08:55;;;;;;;7.55;3.47;;;;;;;8.59;100.00;98071.31;12224310;19;20002;-82
2022/11/22 09:13:17;;;;;;;12.00;2.08;;;;;;;8.70;100.00;98066.63;12201802;19;20015;-82
2022/11/22 09:17:18;;;;;;;15.05;2.55;;;;;;;8.81;100.00;98079.22;12219668;19;20014;-81
2022/11/22 09:21:20;;;;;;;10.40;2.72;;;;;;;8.89;100.00;98068.47;12224042;19;20010;-82
2022/11/22 09:25:22;;;;;;;9.05;1.83;;;;;;;8.99;100.00;98073.09;12199477;19;20006;-82
2022/11/22 09:29:25;;;;;;;7.03;1.70;;;;;;;9.09;100.00;98075.75;12223714;19;20015;-82
2022/11/22 09:33:27;;;;;;;8.70;2.20;;;;;;;9.16;100.00;98080.13;12224086;19;20006;-82
2022/11/22 09:37:30;;;;;;;11.13;2.45;;;;;;;9.18;100.00;98086.19;12221678;19;20009;-81
2022/11/22 09:41:45;;;;;;;;;;;;;;;9.26;100.00;98071.84;12279246;19;20011;-80
2022/11/22 09:46:04;;;;;;;10.93;2.33;;;;;;;9.30;100.00;98072.91;12260377;19;19918;-83
2022/11/22 09:50:31;;;;;;;7.93;2.28;;;;;;;9.31;100.00;98074.53;12201691;19;20002;-82
2022/11/22 09:54:41;;;;;;;12.73;2.80;;;;;;;9.40;100.00;98075.63;12225453;19;20018;-82
2022/11/22 09:58:55;;;;;;;13.10;3.72;;;;;;;9.45;100.00;98078.31;12206003;19;20014;-81
2022/11/22 10:03:07;;;;;;;6.90;1.90;;;;;;;9.48;100.00;98082.41;12225633;19;20011;-82
2022/11/22 10:07:15;;;;;;;13.77;2.10;;;;;;;9.47;100.00;98080.78;12201380;19;20034;-81
2022/11/22 10:11:35;;;;;;;8.40;2.08;;;;;;;9.48;100.00;98069.50;12226018;19;20018;-83
2022/11/22 10:15:51;;;;;;;6.35;2.38;;;;;;;9.56;100.00;98057.91;12227908;19;20017;-82
2022/11/22 10:20:05;;;;;;;7.57;1.80;;;;;;;9.62;100.00;98046.88;12252806;19;19995;-81
2022/11/22 10:24:13;;;;;;;12.45;2.60;;;;;;;9.71;99.96;98059.72;12259558;19;20035;-82
2022/11/22 10:28:34;;;;;;;10.07;2.13;;;;;;;9.85;100.00;98062.63;12236266;19;20095;-82
2022/11/22 10:32:41;;;;;;;8.77;2.25;;;;;;;9.92;98.33;98065.06;12249849;19;20050;-81
2022/11/22 10:36:47;;;;;;;12.15;2.13;;;;;;;9.91;98.35;98074.41;12241895;19;20024;-82
2022/11/22 10:40:57;;;;;;;8.13;2.03;;;;;;;9.90;97.46;98072.75;12201030;19;20380;-82
2022/11/22 10:45:13;;;;;;;5.93;1.98;;;;;;;9.91;97.81;98069.72;12218358;19;20014;-82
2022/11/22 10:49:55;;;;;;;11.60;1.77;;;;;;;9.98;96.56;98074.91;12195562;19;20064;-84
2022/11/22 10:54:20;;;;;;;9.02;2.08;;;;;;;10.04;96.75;98080.06;12217004;19;20015;-82
2022/11/22 10:58:37;;;;;;;7.80;1.98;;;;;;;10.04;94.44;98063.56;12198491;19;20014;-81
2022/11/22 11:02:57;;;;;;;8.65;1.70;;;;;;;9.94;94.00;98069.16;12220221;19;20011;-83
2022/11/22 11:07:00;;;;;;;9.05;1.90;;;;;;;9.95;93.79;98064.47;12209698;19;20007;-83
2022/11/22 11:11:20;;;;;;;7.03;1.45;;;;;;;9.92;92.97;98065.88;12219129;19;20085;-82
2022/11/22 11:15:27;;;;;;;5.47;1.35;;;;;;;9.97;93.31;98057.56;12222299;19;20018;-83
2022/11/22 11:19:36;;;;;;;11.52;1.83;;;;;;;10.02;92.31;98049.28;12197848;19;20007;-83
2022/11/22 11:23:37;;;;;;;5.32;1.63;;;;;;;10.08;92.34;98041.78;12216345;19;20034;-83
2022/11/22 11:27:41;;;;;;;9.07;1.65;;;;;;;10.09;91.22;98048.13;12216064;19;20006;-83
2022/11/22 11:31:45;;;;;;;8.75;1.50;;;;;;;10.25;91.46;98052.34;12194752;19;20358;-81
2022/11/22 11:35:47;;;;;;;8.73;1.67;;;;;;;10.30;90.15;98049.59;12217067;19;20022;-81
2022/11/22 11:39:48;;;;;;;10.98;1.50;;;;;;;10.33;88.96;98057.25;12218697;19;20007;-83
2022/11/22 11:43:57;;;;;;;6.13;1.35;;;;;;;10.37;88.59;98058.31;12190793;19;20010;-82
2022/11/22 11:47:59;;;;;;;9.52;2.35;;;;;;;10.54;88.70;98046.84;12212495;19;20035;-83
2022/11/22 11:52:07;;;;;;;7.72;1.63;;;;;;;10.83;87.99;98041.28;12189466;19;20468;-83
2022/11/22 11:56:31;;;;;;;5.53;1.42;;;;;;;11.07;86.16;98046.75;12213032;19;20014;-83
2022/11/22 12:00:38;;;;;;;4.88;1.20;;;;;;;11.14;84.92;98047.19;12215560;19;20014;-83
2022/11/22 12:04:56;;;;;;;4.45;1.13;;;;;;;11.09;83.10;98051.94;12194834;19;20015;-84
2022/11/22 12:09:00;;;;;;;5.13;1.38;;;;;;;10.98;81.88;98043.00;12216118;19;20011;-81
2022/11/22 12:13:23;;;;;;;6.18;1.42;;;;;;;10.93;80.17;98040.31;12195091;19;20389;-84
2022/11/22 12:17:29;;;;;;;8.02;1.63;;;;;;;10.97;82.13;98040.53;12210443;19;20003;-84
2022/11/22 12:21:53;;;;;;;8.35;1.20;;;;;;;10.95;80.55;98044.41;12213924;19;20050;-84
2022/11/22 12:25:55;;;;;;;5.72;1.45;;;;;;;10.91;80.32;98032.34;12224804;19;20009;-81
2022/11/22 12:29:57;;;;;;;8.73;1.40;;;;;;;10.79;79.21;98023.66;12237296;19;20010;-83
2022/11/22 12:34:12;;;;;;;8.23;1.57;;;;;;;10.80;79.99;98019.00;12198526;19;20333;-84
2022/11/22 12:38:22;;;;;;;9.63;1.40;;;;;;;10.75;79.51;98008.03;12219137;19;20018;-84
2022/11/22 12:42:32;;;;;;;4.50;1.25;;;;;;;10.65;79.35;98006.25;12213527;19;20456;-84
2022/11/22 12:46:38;;;;;;;6.78;1.23;;;;;;;10.66;80.19;98008.69;12189335;19;20011;-83
2022/11/22 12:50:48;;;;;;;8.15;1.40;;;;;;;10.67;80.22;98009.50;12207068;19;20436;-86
2022/11/22 12:54:59;;;;;;;5.22;1.30;;;;;;;10.72;80.69;98013.03;12210583;19;20059;-83
2022/11/22 12:59:28;;;;;;;6.28;1.50;;;;;;;10.74;79.78;98015.50;12202974;19;20010;-83
2022/11/22 13:03:36;;;;;;;7.43;1.98;;;;;;;10.66;80.14;98007.88;12225990;19;20663;-84
2022/11/22 13:07:55;;;;;;;8.93;1.33;;;;;;;10.56;78.69;98010.72;12195413;19;20064;-83
2022/11/22 13:12:04;;;;;;;5.93;1.27;;;;;;;10.53;78.96;98001.16;12222249;19;20011;-83
2022/11/22 13:16:08;;;;;;;5.68;0.95;;;;;;;10.50;78.68;97999.00;12199054;19;20014;-83
2022/11/22 13:20:24;;;;;;;10.13;1.55;;;;;;;10.55;79.43;98006.34;12220869;19;20485;-84
2022/11/22 13:24:42;;;;;;;7.15;1.40;;;;;;;10.49;78.79;98002.84;12222918;19;20010;-81
2022/11/22 13:28:44;;;;;;;4.75;1.25;;;;;;;10.52;79.23;97999.50;12199709;19;20034;-83
2022/11/22 13:32:51;;;;;;;6.40;1.40;;;;;;;10.60;79.85;98000.78;12217199;19;20500;-82
2022/11/22 13:36:53;;;;;;;3.58;1.08;;;;;;;10.63;79.39;97997.44;12221147;19;20786;-83
2022/11/22 13:41:42;;;;;;;6.32;1.10;;;;;;;10.56;77.43;97997.81;12198863;19;20010;-83
2022/11/22 13:45:52;;;;;;;4.95;1.33;;;;;;;10.48;77.25;97996.50;12219885;19;20021;-84
2022/11/22 13:49:54;;;;;;;6.50;1.30;;;;;;;10.43;78.43;98002.06;12198118;19;20011;-82
2022/11/22 13:54:30;;;;;;;8.55;1.30;;;;;;;10.42;78.50;98016.16;12217145;19;20056;-82
2022/11/22 13:58:38;;;;;;;2.38;0.88;;;;;;;10.37;78.13;98013.44;12202405;19;20019;-84
2022/11/22 14:02:53;;;;;;;4.78;1.15;;;;;;;10.24;78.30;98020.44;12218823;19;20003;-83
2022/11/22 14:07:32;;;;;;;5.90;1.00;;;;;;;10.05;79.18;98012.09;12219459;19;20002;-84
2022/11/22 14:12:02;;;;;;;5.60;1.30;;;;;;;9.91;80.28;98017.47;12119113;19;2004364;-83
2022/11/22 14:16:10;;;;;;;2.95;1.00;;;;;;;9.88;80.95;98015.28;12197045;19;20034;-82
2022/11/22 14:20:25;;;;;;;5.93;1.25;;;;;;;9.84;81.04;98014.22;12220267;19;20014;-82
2022/11/22 14:25:02;;;;;;;8.32;1.30;;;;;;;9.85;81.98;98006.81;12219558;19;20369;-82
2022/11/22 14:29:13;;;;;;;8.70;1.50;;;;;;;9.79;82.33;98006.03;12197295;19;20014;-80
2022/11/22 14:33:27;;;;;;;8.05;1.80;;;;;;;9.78;82.81;98007.09;12217897;19;20054;-82
2022/11/22 14:37:30;;;;;;;;;;;;;;;9.70;83.15;98005.81;12196660;19;20019;-83
2022/11/22 14:41:35;;;;;;;6.22;1.25;;;;;;;9.72;83.63;98011.00;12214316;19;19915;-81
2022/11/22 14:45:48;;;;;;;;;;;;;;;9.65;84.16;98013.28;12215533;19;20038;-82
2022/11/22 14:49:52;;;;;;;7.20;1.38;;;;;;;9.59;84.81;98016.06;12193442;19;19918;-84
2022/11/22 14:54:20;;;;;;;7.18;1.40;;;;;;;9.55;85.45;98016.94;12212955;19;20006;-83
2022/11/22 14:58:27;;;;;;;7.78;1.50;;;;;;;9.45;86.55;98023.31;12194935;19;20018;-83
2022/11/22 15:03:13;;;;;;;6.55;1.70;;;;;;;9.43;87.30;98028.31;12216136;19;20031;-83
2022/11/22 15:07:37;;;;;;;7.53;1.80;;;;;;;9.40;87.87;98028.03;12193283;19;20014;-83
2022/11/22 15:12:11;;;;;;;6.25;2.58;;;;;;;9.42;88.22;98029.41;12213660;19;20014;-83
2022/11/22 15:16:20;;;;;;;5.43;1.30;;;;;;;9.34;88.95;98032.78;12198434;19;20597;-83
2022/11/22 15:20:43;;;;;;;9.18;1.70;;;;;;;9.28;89.72;98034.72;12246064;19;20015;-81
2022/11/22 15:25:16;;;;;;;5.57;1.48;;;;;;;9.26;89.76;98042.44;12213735;19;20002;-83
2022/11/22 15:29:37;;;;;;;5.67;1.53;;;;;;;9.16;90.48;98047.16;12229904;19;20007;-83
2022/11/22 15:33:59;;;;;;;7.47;1.52;;;;;;;9.07;91.14;98056.00;12207204;19;20581;-83
2022/11/22 15:38:22;;;;;;;4.03;1.73;;;;;;;9.06;91.17;98065.34;12225376;19;20464;-82
2022/11/22 15:42:56;;;;;;;4.50;0.98;;;;;;;9.02;91.21;98063.47;12221398;19;20055;-83
2022/11/22 15:47:19;;;;;;;6.03;0.87;;;;;;;8.95;91.27;98073.91;12199347;19;20027;-81
2022/11/22 15:51:52;;;;;;;2.20;0.90;;;;;;;8.92;91.41;98068.97;12223934;19;20086;-81
2022/11/22 15:56:17;;;;;;;3.95;1.08;;;;;;;8.88;91.29;98068.72;12205875;19;20248;-83
2022/11/22 16:00:42;;;;;;;2.83;1.83;;;;;;;8.85;91.56;98080.28;12232717;19;20014;-83
2022/11/22 16:04:49;;;;;;;5.68;1.13;;;;;;;8.85;91.93;98081.09;12232436;19;20043;-81
2022/11/22 16:09:42;;;;;;;6.10;1.70;;;;;;;8.82;92.29;98097.31;12268327;19;20047;-81
2022/11/22 16:13:43;;;;;;;2.90;1.52;;;;;;;8.81;92.46;98095.69;12217593;19;20003;-83
2022/11/22 16:18:17;;;;;;;5.90;1.30;;;;;;;8.81;93.06;98104.75;12224363;19;20360;-84
2022/11/22 16:22:31;;;;;;;2.38;1.00;;;;;;;8.78;93.76;98115.47;12200580;19;20061;-84
2022/11/22 16:26:32;;;;;;;5.18;2.00;;;;;;;8.74;94.21;98106.94;12222921;19;20058;-83
2022/11/22 16:30:42;;;;;;;8.38;2.25;;;;;;;8.74;94.88;98111.63;12226929;19;20007;-83
2022/11/22 16:34:44;;;;;;;8.95;2.90;;;;;;;8.63;96.41;98117.16;12208258;19;20448;-83
2022/11/22 16:38:47;;;;;;;5.07;1.83;;;;;;;8.61;97.64;98113.03;12223966;19;20448;-84
2022/11/22 16:42:49;;;;;;;6.88;1.52;;;;;;;8.50;100.00;98123.22;12224661;19;20463;-84
2022/11/22 16:51:10;;;;;;;6.50;1.83;;;;;;;8.41;100.00;98116.63;12222892;19;20021;-83
2022/11/22 16:55:15;;;;;;;5.53;1.60;;;;;;;8.34;100.00;98119.66;12194155;19;20006;-83
2022/11/22 16:59:17;;;;;;;4.22;1.40;;;;;;;8.31;100.00;98125.69;12223052;19;20015;-82
2022/11/22 17:03:23;;;;;;;4.40;1.17;;;;;;;8.33;100.00;98131.72;12222494;19;20025;-83
2022/11/22 17:07:26;;;;;;;2.13;0.90;;;;;;;8.33;100.00;98139.13;12202023;19;20034;-83
2022/11/22 17:11:29;;;;;;;;;;;;;;;8.33;100.00;98130.88;12225404;19;20478;-82
2022/11/22 17:15:30;;;;;;;3.90;1.60;;;;;;;8.33;100.00;98139.13;12227269;19;19915;-82
2022/11/22 17:19:32;;;;;;;3.53;0.98;;;;;;;8.31;100.00;98150.38;12203293;19;20206;-85
2022/11/22 17:23:55;;;;;;;3.50;1.23;;;;;;;8.30;100.00;98147.91;12221320;19;20014;-82
2022/11/22 17:27:57;;;;;;;2.65;1.05;;;;;;;8.30;100.00;98156.13;12223016;19;20605;-82
2022/11/22 17:31:59;;;;;;;2.85;1.23;;;;;;;8.27;100.00;98141.06;12201223;19;21391;-83
2022/11/22 17:36:00;;;;;;;3.88;1.38;;;;;;;8.27;100.00;98151.19;12223621;19;20353;-83
2022/11/22 17:40:02;;;;;;;3.10;1.20;;;;;;;8.27;100.00;98156.69;12203078;19;20010;-82
2022/11/22 17:44:04;;;;;;;6.10;2.40;;;;;;;8.26;100.00;98155.06;12221721;19;20039;-82
2022/11/22 17:48:06;;;;;;;4.40;2.05;;;;;;;8.23;100.00;98154.50;12223160;19;20011;-82
2022/11/22 17:52:08;;;;;;;3.88;1.75;;;;;;;8.22;100.00;98163.84;12202406;19;20382;-83
2022/11/22 17:56:10;;;;;;;7.20;2.15;;;;;;;8.24;100.00;98169.06;12218184;19;20011;-82
2022/11/22 18:00:12;;;;;;;4.00;1.80;;;;;;;8.28;100.00;98169.34;12222125;19;20006;-83
2022/11/22 18:04:16;;;;;;;6.30;2.73;;;;;;;8.28;100.00;98181.13;12198594;19;20034;-83
2022/11/22 18:08:17;;;;;;;5.53;2.30;;;;;;;8.25;100.00;98176.19;12218467;19;20412;-82
2022/11/22 18:12:19;;;;;;;8.07;3.33;;;;;;;8.26;100.00;98180.56;12219192;19;20070;-82
2022/11/22 18:16:27;;;;;;;5.43;2.47;;;;;;;8.27;100.00;98173.16;12196469;19;20435;-82
2022/11/22 18:20:29;;;;;;;7.68;2.22;;;;;;;8.26;100.00;98169.59;12218193;19;20743;-82
2022/11/22 18:24:31;;;;;;;5.10;2.40;;;;;;;8.25;100.00;98178.13;12219575;19;20472;-82
2022/11/22 18:28:34;;;;;;;3.87;1.70;;;;;;;8.21;100.00;98181.41;12195216;19;20368;-83
2022/11/22 18:32:35;;;;;;;6.93;2.63;;;;;;;8.17;100.00;98180.28;12219604;19;20264;-82
2022/11/22 18:36:37;;;;;;;7.43;2.20;;;;;;;8.17;100.00;98196.75;12217803;19;20006;-83
2022/11/22 18:41:00;;;;;;;6.65;2.50;;;;;;;8.18;100.00;98197.59;12196725;19;20017;-83
2022/11/22 18:45:02;;;;;;;6.35;2.97;;;;;;;8.19;100.00;98193.75;12217312;19;20010;-83
2022/11/22 18:49:03;;;;;;;5.45;3.28;;;;;;;8.19;100.00;98200.06;12195164;19;20499;-82
2022/11/22 18:53:05;;;;;;;5.45;2.80;;;;;;;8.20;100.00;98198.13;12212569;19;20125;-83
2022/11/22 18:57:07;;;;;;;7.63;3.13;;;;;;;8.22;100.00;98190.47;12212711;19;20514;-83
2022/11/22 19:01:14;;;;;;;7.50;3.20;;;;;;;8.22;100.00;98199.50;12194864;19;20105;-81
2022/11/22 19:05:16;;;;;;;4.30;2.90;;;;;;;8.19;100.00;98205.53;12214850;19;20078;-81
2022/11/22 19:09:24;;;;;;;6.85;2.80;;;;;;;8.19;100.00;98204.72;12216442;19;20013;-82
2022/11/22 19:13:26;;;;;;;7.00;2.73;;;;;;;8.19;100.00;98204.72;12185999;19;20018;-82
2022/11/22 19:17:28;;;;;;;7.95;2.83;;;;;;;8.15;100.00;98207.19;12216619;19;20010;-83
2022/11/22 19:21:31;;;;;;;7.07;2.28;;;;;;;8.11;100.00;98203.34;12223497;19;20337;-83
2022/11/22 19:25:34;;;;;;;8.27;3.00;;;;;;;8.09;100.00;98201.97;12192089;19;20014;-83